createdAt,value
2019-04-27T00:01:35.610Z,17.25
2019-04-27T00:04:23.586Z,17.27
2019-04-27T00:06:57.691Z,17.05
2019-04-27T00:09:50.076Z,16.84
2019-04-27T00:12:21.657Z,16.77
2019-04-27T00:14:48.393Z,16.89
2019-04-27T00:17:45.473Z,16.88
2019-04-27T00:20:13.106Z,16.79
2019-04-27T00:22:43.624Z,16.67
2019-04-27T00:25:13.091Z,16.99
2019-04-27T00:27:43.536Z,16.60
2019-04-27T00:30:13.847Z,16.46
2019-04-27T00:32:43.332Z,16.65
2019-04-27T00:35:14.198Z,16.54
2019-04-27T00:37:47.074Z,16.25
2019-04-27T00:40:17.298Z,16.06
2019-04-27T00:42:45.788Z,16.44
2019-04-27T00:45:14.926Z,16.33
2019-04-27T00:47:54.661Z,16.15
2019-04-27T00:50:13.815Z,16.54
2019-04-27T00:52:42.985Z,16.83
2019-04-27T00:55:13.244Z,16.68
2019-04-27T00:57:46.139Z,16.12
2019-04-27T01:00:33.737Z,16.06
2019-04-27T01:03:04.129Z,16.08
2019-04-27T01:05:33.843Z,16.13
2019-04-27T01:08:03.823Z,16.11
2019-04-27T01:10:33.475Z,15.98
2019-04-27T01:13:03.286Z,16.05
2019-04-27T01:15:33.963Z,16.12
2019-04-27T01:18:11.923Z,16.03
2019-04-27T01:20:33.170Z,15.86
2019-04-27T01:23:01.669Z,15.66
2019-04-27T01:25:31.828Z,15.77
2019-04-27T01:28:04.707Z,16.24
2019-04-27T01:30:40.360Z,16.43
2019-04-27T01:33:09.812Z,16.32
2019-04-27T01:35:39.172Z,16.25
2019-04-27T01:38:09.040Z,16.61
2019-04-27T01:40:38.591Z,16.62
2019-04-27T01:43:08.992Z,16.54
2019-04-27T01:45:39.158Z,16.42
2019-04-27T01:48:20.869Z,16.41
2019-04-27T01:50:39.215Z,16.06
2019-04-27T01:53:09.091Z,15.95
2019-04-27T01:55:38.616Z,15.55
2019-04-27T01:58:10.697Z,15.58
2019-04-27T02:00:59.489Z,15.15
2019-04-27T02:03:33.285Z,15.29
2019-04-27T02:05:59.479Z,15.39
2019-04-27T02:08:28.635Z,15.36
2019-04-27T02:10:57.111Z,14.94
2019-04-27T02:13:25.635Z,15.00
2019-04-27T02:15:54.309Z,15.00
2019-04-27T02:18:34.667Z,15.00
2019-04-27T02:20:53.017Z,15.04
2019-04-27T02:23:21.605Z,14.85
2019-04-27T02:25:50.124Z,14.96
2019-04-27T02:28:39.428Z,14.87
2019-04-27T02:31:26.000Z,14.77
2019-04-27T02:33:56.322Z,14.85
2019-04-27T02:36:24.970Z,14.83
2019-04-27T02:38:53.452Z,14.59
2019-04-27T02:41:22.007Z,14.66
2019-04-27T02:44:01.987Z,14.62
2019-04-27T02:46:31.583Z,14.24
2019-04-27T02:49:06.065Z,14.17
2019-04-27T02:51:42.947Z,14.06
2019-04-27T02:54:12.692Z,14.30
2019-04-27T02:56:41.479Z,14.38
2019-04-27T02:59:11.932Z,14.14
2019-04-27T03:01:46.376Z,13.98
2019-04-27T03:04:12.631Z,14.06
2019-04-27T03:06:41.159Z,14.57
2019-04-27T03:09:10.536Z,14.13
2019-04-27T03:11:39.705Z,14.42
2019-04-27T03:14:28.421Z,14.54
2019-04-27T03:16:44.377Z,14.47
2019-04-27T03:19:30.407Z,14.04
2019-04-27T03:22:15.578Z,14.21
2019-04-27T03:25:01.141Z,14.38
2019-04-27T03:27:31.335Z,14.42
2019-04-27T03:30:00.305Z,14.66
2019-04-27T03:32:31.329Z,14.17
2019-04-27T03:35:02.628Z,14.00
2019-04-27T03:37:30.408Z,13.83
2019-04-27T03:40:00.144Z,13.87
2019-04-27T03:42:29.381Z,13.65
2019-04-27T03:45:00.391Z,14.04
2019-04-27T03:47:30.562Z,13.65
2019-04-27T03:50:00.099Z,14.01
2019-04-27T03:52:33.452Z,14.00
2019-04-27T03:55:15.799Z,14.06
2019-04-27T03:57:46.002Z,14.20
2019-04-27T04:00:20.123Z,14.24
2019-04-27T04:02:50.259Z,14.19
2019-04-27T04:05:19.829Z,14.34
2019-04-27T04:07:50.317Z,13.89
2019-04-27T04:10:19.910Z,14.42
2019-04-27T04:13:06.215Z,14.16
2019-04-27T04:15:39.958Z,14.18
2019-04-27T04:18:09.793Z,14.00
2019-04-27T04:20:40.510Z,14.45
2019-04-27T04:23:10.683Z,14.68
2019-04-27T04:25:40.954Z,14.50
2019-04-27T04:28:09.497Z,14.49
2019-04-27T04:30:40.285Z,14.49
2019-04-27T04:33:10.178Z,14.70
2019-04-27T04:35:39.811Z,14.97
2019-04-27T04:38:10.452Z,15.07
2019-04-27T04:40:40.505Z,14.83
2019-04-27T04:43:11.110Z,14.51
2019-04-27T04:45:59.648Z,14.86
2019-04-27T04:48:30.223Z,14.44
2019-04-27T04:50:59.947Z,14.03
2019-04-27T04:53:29.410Z,13.89
2019-04-27T04:56:00.053Z,13.04
2019-04-27T04:58:29.398Z,13.20
2019-04-27T05:00:59.561Z,13.16
2019-04-27T05:03:28.708Z,13.06
2019-04-27T05:05:58.778Z,13.36
2019-04-27T05:08:29.114Z,13.44
2019-04-27T05:10:59.523Z,13.48
2019-04-27T05:13:29.310Z,13.37
2019-04-27T05:15:58.852Z,13.37
2019-04-27T05:18:29.136Z,12.86
2019-04-27T05:20:59.372Z,12.67
2019-04-27T05:23:28.762Z,12.77
2019-04-27T05:25:59.184Z,12.57
2019-04-27T05:28:27.562Z,12.57
2019-04-27T05:30:56.076Z,12.60
2019-04-27T05:33:24.570Z,12.84
2019-04-27T05:35:53.096Z,12.26
2019-04-27T05:38:21.625Z,12.78
2019-04-27T05:40:50.180Z,12.88
2019-04-27T05:43:20.518Z,12.77
2019-04-27T05:46:21.087Z,12.95
2019-04-27T05:48:49.607Z,12.75
2019-04-27T05:51:19.743Z,12.33
2019-04-27T05:53:49.531Z,12.81
2019-04-27T05:56:19.319Z,12.94
2019-04-27T05:58:49.117Z,13.28
2019-04-27T06:01:19.642Z,13.48
2019-04-27T06:03:49.822Z,14.03
2019-04-27T06:06:19.731Z,13.30
2019-04-27T06:08:49.469Z,13.46
2019-04-27T06:11:19.649Z,12.62
2019-04-27T06:13:49.230Z,12.52
2019-04-27T06:16:19.476Z,12.12
2019-04-27T06:18:49.314Z,11.99
2019-04-27T06:21:19.573Z,12.37
2019-04-27T06:23:48.783Z,12.45
2019-04-27T06:26:17.427Z,12.38
2019-04-27T06:28:45.960Z,12.98
2019-04-27T06:31:14.518Z,12.86
2019-04-27T06:33:43.066Z,12.81
2019-04-27T06:36:11.588Z,12.74
2019-04-27T06:38:40.158Z,13.03
2019-04-27T06:41:09.999Z,13.00
2019-04-27T06:43:40.450Z,13.00
2019-04-27T06:46:09.169Z,13.15
2019-04-27T06:48:39.356Z,12.85
2019-04-27T06:51:09.697Z,13.59
2019-04-27T06:53:39.459Z,13.67
2019-04-27T06:56:08.965Z,13.92
2019-04-27T06:58:40.500Z,13.90
2019-04-27T07:01:09.463Z,13.63
2019-04-27T07:03:39.502Z,13.49
2019-04-27T07:06:08.824Z,13.82
2019-04-27T07:08:39.930Z,13.85
2019-04-27T07:11:08.995Z,13.94
2019-04-27T07:13:39.067Z,13.54
2019-04-27T07:16:09.502Z,13.45
2019-04-27T07:18:39.662Z,13.14
2019-04-27T07:21:16.912Z,13.17
2019-04-27T07:23:40.226Z,13.30
2019-04-27T07:26:09.387Z,13.72
2019-04-27T07:28:39.256Z,13.75
2019-04-27T07:31:09.652Z,13.63
2019-04-27T07:33:39.547Z,13.23
2019-04-27T07:36:08.953Z,12.57
2019-04-27T07:38:39.387Z,13.17
2019-04-27T07:41:09.565Z,12.94
2019-04-27T07:43:55.046Z,13.28
2019-04-27T07:46:23.541Z,13.65
2019-04-27T07:48:52.952Z,13.32
2019-04-27T07:51:31.591Z,13.42
2019-04-27T07:53:53.702Z,13.77
2019-04-27T07:56:22.223Z,13.58
2019-04-27T07:58:50.720Z,13.40
2019-04-27T08:01:19.351Z,12.98
2019-04-27T08:03:49.038Z,13.12
2019-04-27T08:06:18.983Z,13.21
2019-04-27T08:08:49.226Z,13.68
2019-04-27T08:11:19.257Z,13.13
2019-04-27T08:13:49.017Z,13.20
2019-04-27T08:16:18.305Z,13.32
2019-04-27T08:18:49.349Z,13.31
2019-04-27T08:21:18.869Z,12.91
2019-04-27T08:23:49.001Z,13.07
2019-04-27T08:26:19.226Z,12.94
2019-04-27T08:28:51.840Z,12.90
2019-04-27T08:31:21.961Z,12.73
2019-04-27T08:33:50.455Z,12.96
2019-04-27T08:36:19.139Z,13.19
2019-04-27T08:38:48.932Z,13.17
2019-04-27T08:41:17.435Z,13.14
2019-04-27T08:43:45.961Z,12.85
2019-04-27T08:46:14.480Z,13.42
2019-04-27T08:48:42.953Z,13.39
2019-04-27T08:51:11.429Z,14.13
2019-04-27T08:53:39.961Z,13.67
2019-04-27T08:56:09.372Z,13.90
2019-04-27T08:58:38.603Z,13.76
2019-04-27T09:01:10.041Z,13.63
2019-04-27T09:03:39.458Z,12.76
2019-04-27T09:08:59.281Z,13.45
2019-04-27T09:11:29.578Z,13.43
2019-04-27T09:14:02.839Z,13.62
2019-04-27T09:16:32.986Z,13.99
2019-04-27T09:19:05.866Z,14.20
2019-04-27T09:21:52.275Z,14.57
2019-04-27T09:24:20.822Z,14.68
2019-04-27T09:26:49.324Z,14.60
2019-04-27T09:29:17.798Z,14.17
2019-04-27T09:31:46.301Z,14.42
2019-04-27T09:34:14.823Z,14.65
2019-04-27T09:36:46.268Z,14.87
2019-04-27T09:39:16.367Z,14.99
2019-04-27T09:41:45.974Z,14.82
2019-04-27T09:44:16.054Z,14.99
2019-04-27T09:46:44.646Z,13.85
2019-04-27T09:49:13.139Z,14.50
2019-04-27T09:51:41.658Z,14.60
2019-04-27T09:54:10.151Z,14.50
2019-04-27T09:56:38.662Z,14.79
2019-04-27T09:59:07.226Z,14.66
2019-04-27T10:01:36.140Z,14.58
2019-04-27T10:04:05.220Z,14.58
2019-04-27T10:06:33.814Z,14.40
2019-04-27T10:09:02.395Z,14.65
2019-04-27T10:11:31.015Z,14.52
2019-04-27T10:13:59.553Z,14.48
2019-04-27T10:16:28.051Z,14.07
2019-04-27T10:18:56.580Z,14.07
2019-04-27T10:21:26.418Z,13.90
2019-04-27T10:23:56.664Z,13.95
2019-04-27T10:26:25.952Z,13.90
2019-04-27T10:28:55.985Z,14.05
2019-04-27T10:31:24.634Z,14.17
2019-04-27T10:33:53.120Z,14.16
2019-04-27T10:36:23.322Z,14.07
2019-04-27T10:38:55.522Z,14.11
2019-04-27T10:41:25.898Z,14.27
2019-04-27T10:43:54.480Z,14.36
2019-04-27T10:46:22.999Z,14.37
2019-04-27T10:48:51.573Z,14.46
2019-04-27T10:51:20.070Z,14.53
2019-04-27T10:53:48.589Z,14.17
2019-04-27T10:56:17.170Z,14.20
2019-04-27T10:58:45.773Z,14.26
2019-04-27T11:01:15.634Z,14.29
2019-04-27T11:03:51.726Z,14.43
2019-04-27T11:06:34.087Z,13.61
2019-04-27T11:09:02.806Z,13.76
2019-04-27T11:11:32.821Z,13.93
2019-04-27T11:14:01.316Z,14.01
2019-04-27T11:16:29.972Z,13.93
2019-04-27T11:18:58.847Z,13.99
2019-04-27T11:21:27.457Z,13.99
2019-04-27T11:23:56.052Z,14.09
2019-04-27T11:26:26.199Z,14.11
2019-04-27T11:28:55.112Z,14.16
2019-04-27T11:31:23.740Z,14.12
2019-04-27T11:33:53.104Z,13.95
2019-04-27T11:36:23.250Z,14.37
2019-04-27T11:38:53.412Z,14.18
2019-04-27T11:41:21.987Z,14.68
2019-04-27T11:43:50.566Z,14.51
2019-04-27T11:46:19.060Z,14.64
2019-04-27T11:48:47.656Z,14.82
2019-04-27T11:51:17.440Z,14.67
2019-04-27T11:53:46.811Z,14.88
2019-04-27T11:56:15.715Z,14.99
2019-04-27T11:58:47.307Z,14.92
2019-04-27T12:01:16.094Z,15.02
2019-04-27T12:03:44.676Z,14.83
2019-04-27T12:06:13.355Z,14.86
2019-04-27T12:08:41.848Z,14.94
2019-04-27T12:11:10.421Z,14.81
2019-04-27T12:13:38.944Z,14.61
2019-04-27T12:16:07.473Z,14.01
2019-04-27T12:18:36.128Z,14.15
2019-04-27T12:21:06.121Z,13.66
2019-04-27T12:23:39.472Z,13.51
2019-04-27T12:26:05.836Z,13.21
2019-04-27T12:28:36.038Z,13.48
2019-04-27T12:31:08.784Z,13.33
2019-04-27T12:33:37.290Z,14.30
2019-04-27T12:36:06.785Z,14.71
2019-04-27T12:38:36.534Z,14.99
2019-04-27T12:41:06.804Z,15.43
2019-04-27T12:43:35.618Z,15.32
2019-04-27T12:46:06.018Z,15.27
2019-04-27T12:48:37.193Z,15.36
2019-04-27T12:51:05.240Z,15.10
2019-04-27T12:53:50.686Z,15.22
2019-04-27T12:56:29.806Z,15.33
2019-04-27T12:58:59.941Z,15.33
2019-04-27T13:01:29.517Z,15.34
2019-04-27T13:03:59.247Z,15.35
2019-04-27T13:06:27.998Z,15.28
2019-04-27T13:08:56.513Z,15.13
2019-04-27T13:11:26.795Z,14.99
2019-04-27T13:13:57.269Z,14.94
2019-04-27T13:16:26.880Z,15.46
2019-04-27T13:18:57.480Z,15.13
2019-04-27T13:21:26.366Z,14.90
2019-04-27T13:24:03.673Z,14.86
2019-04-27T13:26:25.746Z,15.04
2019-04-27T13:28:54.803Z,15.18
2019-04-27T13:31:23.325Z,15.15
2019-04-27T13:33:51.840Z,14.89
2019-04-27T13:36:20.392Z,14.79
2019-04-27T13:38:48.893Z,14.68
2019-04-27T13:41:27.859Z,14.70
2019-04-27T13:43:47.611Z,14.92
2019-04-27T13:46:17.783Z,14.75
2019-04-27T13:49:02.665Z,14.94
2019-04-27T13:51:35.567Z,14.61
2019-04-27T13:54:17.350Z,14.43
2019-04-27T13:56:35.612Z,14.30
2019-04-27T13:59:07.531Z,14.47
2019-04-27T14:01:35.589Z,14.66
2019-04-27T14:04:06.861Z,14.81
2019-04-27T14:06:35.198Z,14.90
2019-04-27T14:09:05.225Z,14.74
2019-04-27T14:11:33.717Z,15.03
2019-04-27T14:14:02.201Z,15.03
2019-04-27T14:19:10.982Z,14.65
2019-04-27T14:21:39.639Z,14.35
2019-04-27T14:24:08.127Z,14.65
2019-04-27T14:26:38.460Z,14.85
2019-04-27T14:29:08.232Z,14.92
2019-04-27T14:31:37.255Z,14.81
2019-04-27T14:34:05.787Z,14.88
2019-04-27T14:36:34.983Z,14.60
2019-04-27T14:39:04.902Z,14.67
2019-04-27T14:41:33.416Z,14.57
2019-04-27T14:44:08.120Z,14.66
2019-04-27T14:46:32.224Z,14.95
2019-04-27T14:49:00.715Z,14.46
2019-04-27T14:51:29.226Z,14.58
2019-04-27T14:53:58.885Z,14.70
2019-04-27T14:56:28.225Z,14.65
2019-04-27T14:58:58.661Z,14.42
2019-04-27T15:01:27.009Z,14.29
2019-04-27T15:03:55.533Z,14.55
2019-04-27T15:06:25.533Z,14.51
2019-04-27T15:08:55.900Z,13.96
2019-04-27T15:11:24.564Z,14.26
2019-04-27T15:13:56.827Z,14.31
2019-04-27T15:16:24.809Z,14.62
2019-04-27T15:18:55.737Z,14.67
2019-04-27T15:21:25.617Z,14.72
2019-04-27T15:23:54.778Z,14.45
2019-04-27T15:26:23.261Z,14.43
2019-04-27T15:28:53.412Z,14.25
2019-04-27T15:31:27.012Z,14.36
2019-04-27T15:34:01.299Z,14.48
2019-04-27T15:36:34.209Z,14.48
2019-04-27T15:39:15.938Z,14.60
2019-04-27T15:41:51.632Z,14.61
2019-04-27T15:44:20.156Z,14.11
2019-04-27T15:46:48.653Z,14.35
2019-04-27T15:49:17.906Z,14.05
2019-04-27T15:51:46.537Z,14.29
2019-04-27T15:54:15.066Z,13.80
2019-04-27T15:56:43.704Z,14.04
2019-04-27T15:59:12.229Z,14.27
2019-04-27T16:01:40.734Z,14.26
2019-04-27T16:04:11.191Z,14.02
2019-04-27T16:06:42.847Z,14.21
2019-04-27T16:09:11.550Z,14.08
2019-04-27T16:11:40.058Z,13.66
2019-04-27T16:14:08.623Z,14.35
2019-04-27T16:16:38.198Z,14.57
2019-04-27T16:19:10.209Z,14.32
2019-04-27T16:21:41.585Z,14.73
2019-04-27T16:24:08.492Z,14.89
2019-04-27T16:26:38.687Z,14.64
2019-04-27T16:29:08.285Z,14.68
2019-04-27T16:31:38.490Z,14.99
2019-04-27T16:34:08.331Z,14.79
2019-04-27T16:36:43.454Z,14.57
2019-04-27T16:39:09.926Z,14.72
2019-04-27T16:41:41.778Z,14.59
2019-04-27T16:44:10.905Z,14.70
2019-04-27T16:46:42.815Z,14.81
2019-04-27T16:49:13.825Z,14.93
2019-04-27T16:51:40.360Z,14.73
2019-04-27T16:54:13.006Z,14.77
2019-04-27T16:56:39.252Z,14.68
2019-04-27T16:59:33.758Z,15.01
2019-04-27T17:01:40.074Z,14.92
2019-04-27T17:04:11.309Z,15.17
2019-04-27T17:06:45.666Z,15.13
2019-04-27T17:09:11.378Z,15.04
2019-04-27T17:11:43.848Z,15.02
2019-04-27T17:14:11.184Z,15.06
2019-04-27T17:16:41.309Z,14.83
2019-04-27T17:19:14.227Z,15.00
2019-04-27T17:21:42.715Z,15.17
2019-04-27T17:24:11.222Z,15.14
2019-04-27T17:26:43.556Z,15.30
2019-04-27T17:29:16.807Z,15.37
2019-04-27T17:31:43.488Z,15.48
2019-04-27T17:34:12.912Z,15.43
2019-04-27T17:36:42.179Z,15.23
2019-04-27T17:39:11.308Z,15.20
2019-04-27T17:41:42.077Z,15.35
2019-04-27T17:44:12.741Z,15.38
2019-04-27T17:46:42.651Z,15.40
2019-04-27T17:49:11.110Z,15.43
2019-04-27T17:51:44.139Z,15.21
2019-04-27T17:54:11.482Z,15.10
2019-04-27T17:56:48.411Z,14.88
2019-04-27T17:59:16.732Z,14.76
2019-04-27T18:01:40.496Z,14.30
2019-04-27T18:04:10.718Z,14.04
2019-04-27T18:06:39.294Z,14.37
2019-04-27T18:09:09.903Z,13.83
2019-04-27T18:11:38.620Z,13.87
2019-04-27T18:14:09.829Z,14.04
2019-04-27T18:16:38.064Z,14.17
2019-04-27T18:19:11.999Z,14.14
2019-04-27T18:21:42.219Z,14.16
2019-04-27T18:24:12.354Z,14.46
2019-04-27T18:26:56.377Z,14.16
2019-04-27T18:29:22.846Z,14.33
2019-04-27T18:31:54.620Z,14.35
2019-04-27T18:34:22.094Z,14.09
2019-04-27T18:36:50.672Z,14.12
2019-04-27T18:39:19.253Z,13.78
2019-04-27T18:41:50.694Z,13.60
2019-04-27T18:44:23.578Z,13.72
2019-04-27T18:46:49.100Z,13.79
2019-04-27T18:49:30.251Z,13.95
2019-04-27T18:52:04.498Z,14.16
2019-04-27T18:54:33.044Z,14.03
2019-04-27T18:57:04.153Z,13.96
2019-04-27T18:59:30.916Z,14.00
2019-04-27T19:01:59.415Z,14.13
2019-04-27T19:04:28.199Z,14.15
2019-04-27T19:06:59.839Z,14.29
2019-04-27T19:09:27.062Z,14.51
2019-04-27T19:11:56.669Z,14.60
2019-04-27T19:14:25.349Z,14.61
2019-04-27T19:16:58.668Z,14.79
2019-04-27T19:19:28.072Z,14.81
2019-04-27T19:21:58.739Z,14.44
2019-04-27T19:24:28.158Z,14.38
2019-04-27T19:26:58.807Z,14.29
2019-04-27T19:29:29.300Z,14.42
2019-04-27T19:32:02.181Z,14.46
2019-04-27T19:34:30.750Z,14.20
2019-04-27T19:36:59.376Z,14.25
2019-04-27T19:39:28.559Z,14.19
2019-04-27T19:42:01.435Z,14.27
2019-04-27T19:44:29.153Z,13.79
2019-04-27T19:46:59.991Z,13.50
2019-04-27T19:49:31.224Z,13.43
2019-04-27T19:51:58.928Z,13.53
2019-04-27T19:54:28.249Z,13.38
2019-04-27T19:56:59.537Z,13.14
2019-04-27T19:59:29.845Z,13.32
2019-04-27T20:02:00.085Z,13.28
2019-04-27T20:04:33.209Z,13.39
2019-04-27T20:07:01.777Z,13.56
2019-04-27T20:09:34.767Z,13.65
2019-04-27T20:12:05.059Z,13.92
2019-04-27T20:14:36.028Z,13.77
2019-04-27T20:17:04.919Z,13.86
2019-04-27T20:19:33.407Z,13.97
2019-04-27T20:22:01.918Z,13.80
2019-04-27T20:24:31.407Z,13.58
2019-04-27T20:27:02.642Z,13.58
2019-04-27T20:29:31.703Z,13.68
2019-04-27T20:32:01.210Z,13.46
2019-04-27T20:34:31.095Z,13.37
2019-04-27T20:37:01.637Z,13.48
2019-04-27T20:39:30.314Z,13.19
2019-04-27T20:41:58.897Z,13.02
2019-04-27T20:44:27.391Z,13.17
2019-04-27T20:46:55.985Z,13.41
2019-04-27T20:49:24.588Z,13.46
2019-04-27T20:52:01.044Z,13.29
2019-04-27T20:54:30.595Z,13.54
2019-04-27T20:57:01.529Z,13.40
2019-04-27T20:59:30.203Z,13.29
2019-04-27T21:02:00.355Z,13.23
2019-04-27T21:04:36.599Z,13.11
2019-04-27T21:07:06.825Z,13.04
2019-04-27T21:09:35.319Z,13.16
2019-04-27T21:12:04.842Z,13.35
2019-04-27T21:14:33.334Z,13.46
2019-04-27T21:17:01.855Z,13.77
2019-04-27T21:19:31.230Z,13.68
2019-04-27T21:22:01.267Z,13.68
2019-04-27T21:24:31.168Z,13.95
2019-04-27T21:26:59.688Z,14.15
2019-04-27T21:29:28.247Z,14.10
2019-04-27T21:31:56.754Z,14.00
2019-04-27T21:34:25.285Z,14.02
2019-04-27T21:36:53.788Z,14.03
2019-04-27T21:39:22.316Z,14.03
2019-04-27T21:41:51.747Z,13.99
2019-04-27T21:44:21.782Z,13.74
2019-04-27T21:46:51.906Z,13.60
2019-04-27T21:49:22.229Z,13.50
2019-04-27T21:52:04.707Z,13.80
2019-04-27T21:54:34.946Z,13.71
2019-04-27T21:57:03.431Z,13.53
2019-04-27T21:59:32.817Z,13.79
2019-04-27T22:02:03.016Z,13.97
2019-04-27T22:04:31.677Z,13.99
2019-04-27T22:07:01.398Z,14.12
2019-04-27T22:09:29.980Z,13.90
2019-04-27T22:11:58.553Z,13.78
2019-04-27T22:14:27.113Z,13.55
2019-04-27T22:16:55.615Z,13.59
2019-04-27T22:19:24.719Z,13.16
2019-04-27T22:21:53.216Z,13.11
2019-04-27T22:24:23.380Z,13.44
2019-04-27T22:26:51.967Z,13.37
2019-04-27T22:29:22.192Z,13.58
2019-04-27T22:31:51.581Z,13.56
2019-04-27T22:34:21.073Z,13.67
2019-04-27T22:36:49.621Z,13.85
2019-04-27T22:39:20.879Z,13.47
2019-04-27T22:42:01.717Z,12.83
2019-04-27T22:44:41.054Z,13.20
2019-04-27T22:47:11.430Z,13.36
2019-04-27T22:49:39.857Z,13.49
2019-04-27T22:52:08.379Z,13.26
2019-04-27T22:54:36.873Z,13.46
2019-04-27T22:57:07.101Z,13.64
2019-04-27T22:59:41.439Z,13.77
2019-04-27T23:02:23.982Z,13.81
2019-04-27T23:04:56.946Z,13.81
2019-04-27T23:07:25.548Z,13.82
2019-04-27T23:09:54.050Z,13.68
2019-04-27T23:12:23.063Z,13.62
2019-04-27T23:14:51.708Z,13.37
2019-04-27T23:17:41.529Z,13.33
2019-04-27T23:20:11.570Z,13.16
2019-04-27T23:22:40.195Z,13.13
2019-04-27T23:25:08.744Z,13.17
2019-04-27T23:27:37.247Z,13.27
2019-04-27T23:30:07.619Z,13.27
2019-04-27T23:32:43.465Z,13.12
2019-04-27T23:35:13.875Z,13.07
2019-04-27T23:37:42.387Z,12.96
2019-04-27T23:40:12.092Z,12.75
2019-04-27T23:42:41.623Z,12.54
2019-04-27T23:45:10.882Z,12.31
2019-04-27T23:47:39.360Z,12.71
2019-04-27T23:50:08.426Z,13.13
2019-04-27T23:52:54.590Z,13.25
2019-04-27T23:55:24.739Z,13.44
2019-04-27T23:57:53.235Z,13.64
